createdAt,value
2023-01-04T00:01:25.177Z,2.30
2023-01-04T00:03:54.553Z,2.08
2023-01-04T00:06:21.356Z,2.35
2023-01-04T00:08:48.682Z,2.42
2023-01-04T00:11:18.127Z,2.35
2023-01-04T00:13:45.367Z,2.88
2023-01-04T00:16:13.507Z,2.72
2023-01-04T00:18:40.744Z,1.88
2023-01-04T00:21:10.885Z,2.45
2023-01-04T00:23:38.621Z,2.15
2023-01-04T00:26:12.461Z,2.50
2023-01-04T00:28:40.062Z,2.47
2023-01-04T00:31:07.486Z,2.28
2023-01-04T00:33:34.830Z,2.20
2023-01-04T00:36:08.517Z,2.50
2023-01-04T00:38:35.566Z,2.95
2023-01-04T00:41:02.608Z,2.00
2023-01-04T00:43:29.819Z,1.95
2023-01-04T00:45:56.769Z,2.00
2023-01-04T00:48:23.746Z,1.80
2023-01-04T00:50:50.653Z,1.60
2023-01-04T00:53:17.941Z,1.92
2023-01-04T00:55:44.709Z,1.65
2023-01-04T00:58:11.334Z,2.00
2023-01-04T01:00:38.326Z,1.90
2023-01-04T01:03:06.238Z,1.77
2023-01-04T01:05:34.448Z,2.65
2023-01-04T01:08:21.686Z,2.10
2023-01-04T01:10:48.420Z,1.85
2023-01-04T01:13:14.981Z,1.90
2023-01-04T01:15:42.230Z,1.58
2023-01-04T01:18:09.251Z,1.95
2023-01-04T01:20:40.496Z,1.95
2023-01-04T01:23:07.520Z,1.48
2023-01-04T01:25:34.487Z,1.92
2023-01-04T01:28:01.131Z,1.55
2023-01-04T01:30:28.107Z,1.55
2023-01-04T01:32:55.047Z,1.55
2023-01-04T01:35:21.703Z,2.22
2023-01-04T01:37:48.439Z,2.13
2023-01-04T01:40:15.052Z,1.80
2023-01-04T01:42:41.732Z,1.75
2023-01-04T01:45:27.123Z,1.90
2023-01-04T01:47:56.105Z,1.83
2023-01-04T01:50:26.411Z,2.20
2023-01-04T01:52:54.640Z,2.00
2023-01-04T01:55:21.386Z,2.30
2023-01-04T01:57:49.854Z,2.78
2023-01-04T02:00:16.638Z,2.47
2023-01-04T02:03:09.844Z,1.70
2023-01-04T02:05:37.303Z,2.03
2023-01-04T02:08:04.688Z,1.90
2023-01-04T02:10:32.093Z,1.83
2023-01-04T02:12:59.969Z,1.90
2023-01-04T02:15:29.322Z,1.90
2023-01-04T02:18:03.189Z,2.10
2023-01-04T02:20:42.567Z,2.10
2023-01-04T02:23:15.294Z,1.80
2023-01-04T02:25:54.182Z,1.85
2023-01-04T02:28:39.627Z,2.13
2023-01-04T02:31:15.662Z,2.10
2023-01-04T02:33:42.724Z,2.80
2023-01-04T02:36:09.479Z,2.50
2023-01-04T02:39:08.553Z,2.20
2023-01-04T02:42:01.377Z,2.25
2023-01-04T02:44:52.732Z,1.85
2023-01-04T02:47:46.850Z,2.10
2023-01-04T02:50:31.801Z,2.42
2023-01-04T02:53:16.819Z,2.10
2023-01-04T02:56:01.766Z,2.50
2023-01-04T02:58:36.433Z,2.00
2023-01-04T03:01:32.691Z,2.00
2023-01-04T03:04:24.507Z,2.00
2023-01-04T03:07:11.524Z,2.20
2023-01-04T03:09:40.276Z,2.00
2023-01-04T03:12:30.967Z,2.17
2023-01-04T03:15:00.836Z,2.35
2023-01-04T03:17:28.154Z,2.17
2023-01-04T03:19:56.849Z,2.40
2023-01-04T03:22:56.485Z,1.95
2023-01-04T03:26:04.633Z,2.20
2023-01-04T03:28:59.448Z,1.98
2023-01-04T03:31:52.664Z,2.10
2023-01-04T03:34:38.512Z,1.95
2023-01-04T03:37:23.631Z,2.20
2023-01-04T03:43:14.347Z,2.47
2023-01-04T03:46:03.640Z,2.20
2023-01-04T03:48:39.125Z,2.00
2023-01-04T03:51:08.757Z,2.35
2023-01-04T03:53:41.702Z,2.80
2023-01-04T03:56:11.445Z,2.30
2023-01-04T03:58:38.501Z,2.33
2023-01-04T04:01:05.987Z,2.30
2023-01-04T04:03:51.563Z,2.33
2023-01-04T04:06:37.371Z,2.30
2023-01-04T04:09:04.626Z,2.35
2023-01-04T04:11:31.190Z,2.70
2023-01-04T04:13:59.348Z,2.10
2023-01-04T04:16:26.321Z,2.58
2023-01-04T04:18:53.092Z,2.30
2023-01-04T04:21:19.776Z,2.20
2023-01-04T04:23:46.555Z,1.98
2023-01-04T04:26:13.087Z,1.83
2023-01-04T04:28:40.121Z,2.13
2023-01-04T04:31:06.807Z,2.03
2023-01-04T04:33:33.566Z,1.88
2023-01-04T04:36:00.493Z,1.90
2023-01-04T04:38:27.544Z,2.30
2023-01-04T04:41:13.269Z,1.95
2023-01-04T04:43:39.960Z,2.30
2023-01-04T04:46:06.577Z,1.67
2023-01-04T04:48:33.439Z,2.10
2023-01-04T04:51:00.074Z,2.05
2023-01-04T04:53:27.145Z,2.38
2023-01-04T04:55:54.503Z,1.73
2023-01-04T04:58:21.306Z,1.77
2023-01-04T05:00:47.930Z,1.73
2023-01-04T05:03:14.798Z,2.35
2023-01-04T05:05:41.439Z,2.42
2023-01-04T05:08:08.211Z,1.95
2023-01-04T05:10:35.118Z,1.55
2023-01-04T05:13:01.857Z,1.98
2023-01-04T05:15:31.077Z,1.80
2023-01-04T05:17:58.104Z,2.67
2023-01-04T05:20:25.630Z,1.90
2023-01-04T05:22:52.634Z,2.15
2023-01-04T05:25:19.405Z,1.95
2023-01-04T05:27:46.170Z,2.33
2023-01-04T05:30:32.167Z,1.90
2023-01-04T05:32:59.298Z,2.63
2023-01-04T05:35:26.290Z,2.20
2023-01-04T05:37:52.914Z,2.47
2023-01-04T05:40:20.013Z,1.70
2023-01-04T05:42:47.115Z,1.90
2023-01-04T05:45:14.280Z,1.80
2023-01-04T05:47:40.971Z,1.70
2023-01-04T05:50:08.068Z,1.98
2023-01-04T05:52:35.018Z,1.50
2023-01-04T05:55:01.872Z,1.80
2023-01-04T05:57:31.584Z,1.92
2023-01-04T05:59:58.219Z,2.42
2023-01-04T06:02:26.376Z,2.00
2023-01-04T06:04:58.696Z,2.25
2023-01-04T06:07:26.200Z,1.77
2023-01-04T06:09:52.668Z,2.05
2023-01-04T06:12:19.434Z,2.45
2023-01-04T06:14:46.171Z,2.10
2023-01-04T06:17:12.895Z,3.25
2023-01-04T06:19:39.631Z,2.38
2023-01-04T06:22:06.897Z,2.67
2023-01-04T06:24:34.294Z,1.98
2023-01-04T06:27:01.777Z,2.03
2023-01-04T06:29:28.526Z,2.08
2023-01-04T06:31:55.888Z,1.83
2023-01-04T06:34:28.587Z,1.65
2023-01-04T06:36:58.411Z,2.20
2023-01-04T06:39:25.123Z,2.22
2023-01-04T06:41:51.899Z,1.75
2023-01-04T06:44:18.577Z,2.03
2023-01-04T06:46:45.316Z,1.52
2023-01-04T06:49:11.809Z,1.42
2023-01-04T06:51:38.678Z,1.40
2023-01-04T06:54:05.431Z,2.28
2023-01-04T06:56:32.400Z,2.22
2023-01-04T06:58:59.262Z,2.90
2023-01-04T07:01:26.572Z,2.30
2023-01-04T07:03:53.290Z,2.15
2023-01-04T07:06:20.139Z,1.80
2023-01-04T07:08:49.332Z,2.13
2023-01-04T07:11:16.100Z,2.00
2023-01-04T07:13:42.726Z,2.00
2023-01-04T07:16:09.391Z,3.10
2023-01-04T07:18:36.661Z,2.75
2023-01-04T07:21:03.338Z,3.53
2023-01-04T07:23:29.920Z,2.22
2023-01-04T07:26:00.518Z,2.40
2023-01-04T07:28:45.511Z,2.30
2023-01-04T07:31:12.274Z,2.65
2023-01-04T07:33:38.792Z,2.40
2023-01-04T07:36:06.215Z,2.40
2023-01-04T07:38:35.816Z,2.67
2023-01-04T07:41:02.499Z,3.63
2023-01-04T07:43:29.319Z,2.88
2023-01-04T07:45:56.298Z,2.25
2023-01-04T07:48:22.895Z,3.03
2023-01-04T07:50:49.897Z,2.53
2023-01-04T07:53:16.620Z,3.60
2023-01-04T07:55:43.298Z,2.50
2023-01-04T07:58:09.982Z,3.58
2023-01-04T08:00:36.885Z,2.72
2023-01-04T08:03:03.783Z,3.35
2023-01-04T08:05:33.626Z,3.47
2023-01-04T08:08:00.597Z,3.90
2023-01-04T08:10:27.469Z,3.65
2023-01-04T08:12:54.242Z,3.30
2023-01-04T08:15:20.715Z,2.72
2023-01-04T08:17:47.354Z,3.50
2023-01-04T08:20:14.102Z,2.75
2023-01-04T08:22:41.155Z,3.08
2023-01-04T08:25:07.922Z,3.10
2023-01-04T08:27:34.797Z,2.85
2023-01-04T08:30:01.370Z,3.50
2023-01-04T08:32:28.137Z,3.65
2023-01-04T08:34:54.726Z,4.43
2023-01-04T08:37:21.692Z,4.05
2023-01-04T08:39:49.481Z,3.30
2023-01-04T08:42:22.387Z,3.58
2023-01-04T08:44:59.642Z,3.78
2023-01-04T08:47:27.799Z,3.50
2023-01-04T08:49:54.491Z,3.08
2023-01-04T08:52:21.766Z,3.90
2023-01-04T08:54:49.370Z,3.35
2023-01-04T08:57:16.454Z,3.58
2023-01-04T08:59:43.145Z,2.75
2023-01-04T09:02:18.929Z,3.63
2023-01-04T09:04:45.853Z,3.50
2023-01-04T09:07:12.491Z,3.90
2023-01-04T09:09:39.355Z,2.72
2023-01-04T09:12:06.151Z,4.03
2023-01-04T09:14:32.922Z,3.90
2023-01-04T09:16:59.653Z,3.42
2023-01-04T09:19:26.531Z,2.80
2023-01-04T09:21:53.005Z,2.67
2023-01-04T09:24:20.036Z,3.40
2023-01-04T09:26:47.596Z,3.25
2023-01-04T09:29:14.304Z,2.92
2023-01-04T09:31:41.030Z,2.08
2023-01-04T09:34:17.103Z,2.38
2023-01-04T09:36:45.126Z,2.38
2023-01-04T09:39:21.078Z,3.08
2023-01-04T09:41:53.549Z,2.42
2023-01-04T09:44:39.961Z,2.72
2023-01-04T09:47:15.897Z,2.45
2023-01-04T09:50:00.369Z,2.90
2023-01-04T09:52:42.862Z,2.20
2023-01-04T09:55:37.249Z,2.15
2023-01-04T09:58:03.369Z,1.73
2023-01-04T10:00:31.788Z,1.70
2023-01-04T10:02:58.717Z,1.75
2023-01-04T10:05:29.722Z,2.10
2023-01-04T10:07:56.538Z,1.60
2023-01-04T10:10:41.981Z,2.35
2023-01-04T10:13:14.482Z,1.52
2023-01-04T10:15:45.358Z,1.85
2023-01-04T10:24:09.018Z,1.80
2023-01-04T10:29:07.795Z,1.73
2023-01-04T10:31:41.872Z,1.63
2023-01-04T10:34:18.829Z,1.70
2023-01-04T10:36:47.183Z,2.00
2023-01-04T10:39:15.815Z,2.35
2023-01-04T10:41:46.800Z,2.55
2023-01-04T10:44:16.445Z,1.45
2023-01-04T10:46:47.099Z,1.80
2023-01-04T10:49:19.180Z,2.17
2023-01-04T10:51:54.801Z,2.50
2023-01-04T10:54:53.882Z,2.00
2023-01-04T10:57:38.962Z,1.70
2023-01-04T11:00:07.540Z,1.80
2023-01-04T11:02:34.204Z,2.35
2023-01-04T11:05:09.696Z,1.60
2023-01-04T11:07:55.049Z,1.55
2023-01-04T11:10:28.079Z,1.98
2023-01-04T11:12:55.018Z,2.30
2023-01-04T11:15:21.929Z,2.25
2023-01-04T11:17:49.113Z,2.63
2023-01-04T11:20:18.926Z,1.80
2023-01-04T11:22:54.334Z,2.17
2023-01-04T11:25:38.757Z,1.98
2023-01-04T11:28:16.023Z,2.00
2023-01-04T11:30:46.803Z,1.45
2023-01-04T11:33:18.276Z,2.10
2023-01-04T11:35:46.474Z,1.98
2023-01-04T11:38:14.603Z,1.80
2023-01-04T11:40:41.859Z,2.28
2023-01-04T11:43:12.885Z,2.53
2023-01-04T11:45:39.757Z,2.83
2023-01-04T11:48:12.507Z,3.03
2023-01-04T11:53:25.090Z,2.97
2023-01-04T11:56:09.998Z,2.30
2023-01-04T11:58:37.173Z,2.20
2023-01-04T12:01:03.826Z,2.25
2023-01-04T12:03:42.517Z,3.10
2023-01-04T12:06:38.646Z,2.25
2023-01-04T12:09:05.845Z,1.63
2023-01-04T12:11:34.999Z,2.45
2023-01-04T12:14:02.500Z,2.08
2023-01-04T12:16:47.518Z,2.78
2023-01-04T12:19:17.935Z,2.38
2023-01-04T12:21:52.669Z,2.67
2023-01-04T12:24:21.568Z,2.22
2023-01-04T12:26:48.720Z,2.20
2023-01-04T12:29:22.521Z,2.17
2023-01-04T12:31:49.985Z,2.50
2023-01-04T12:34:22.701Z,2.60
2023-01-04T12:37:04.761Z,1.80
2023-01-04T12:39:39.173Z,2.40
2023-01-04T12:42:10.043Z,2.45
2023-01-04T12:44:36.815Z,2.38
2023-01-04T12:47:22.953Z,2.00
2023-01-04T12:49:55.928Z,2.58
2023-01-04T12:52:34.717Z,2.00
2023-01-04T12:55:47.983Z,2.45
2023-01-04T12:58:58.133Z,2.45
2023-01-04T13:01:27.698Z,2.45
2023-01-04T13:04:02.588Z,3.45
2023-01-04T13:06:34.082Z,2.60
2023-01-04T13:09:01.690Z,3.20
2023-01-04T13:11:39.687Z,5.18
2023-01-04T13:14:10.207Z,5.57
2023-01-04T13:16:53.461Z,4.05
2023-01-04T13:19:24.700Z,4.07
2023-01-04T13:21:52.477Z,3.90
2023-01-04T13:24:30.918Z,4.85
2023-01-04T13:26:58.301Z,4.45
2023-01-04T13:29:29.082Z,3.85
2023-01-04T13:32:02.616Z,5.00
2023-01-04T13:34:36.782Z,4.15
2023-01-04T13:37:12.458Z,5.30
2023-01-04T13:39:41.559Z,5.25
2023-01-04T13:42:28.206Z,4.00
2023-01-04T13:45:20.027Z,5.55
2023-01-04T13:47:48.329Z,5.72
2023-01-04T13:50:27.340Z,6.60
2023-01-04T13:53:09.377Z,6.63
2023-01-04T13:55:37.310Z,6.25
2023-01-04T13:58:06.154Z,6.43
2023-01-04T14:00:42.457Z,6.47
2023-01-04T14:03:25.029Z,6.65
2023-01-04T14:05:52.709Z,5.53
2023-01-04T14:08:24.768Z,4.90
2023-01-04T14:10:51.811Z,4.53
2023-01-04T14:13:19.069Z,4.32
2023-01-04T14:15:45.751Z,4.25
2023-01-04T14:18:26.167Z,4.90
2023-01-04T14:20:53.031Z,5.75
2023-01-04T14:23:27.032Z,4.40
2023-01-04T14:25:56.737Z,5.55
2023-01-04T14:28:24.956Z,4.80
2023-01-04T14:30:53.702Z,5.20
2023-01-04T14:33:23.419Z,4.65
2023-01-04T14:36:08.874Z,3.92
2023-01-04T14:38:45.664Z,4.10
2023-01-04T14:41:18.324Z,4.28
2023-01-04T14:43:46.453Z,4.90
2023-01-04T14:46:13.507Z,4.88
2023-01-04T14:48:40.403Z,4.55
2023-01-04T14:51:07.651Z,5.05
2023-01-04T14:53:34.535Z,5.60
2023-01-04T14:56:01.296Z,5.70
2023-01-04T14:58:28.010Z,4.93
2023-01-04T15:00:54.807Z,5.72
2023-01-04T15:03:24.285Z,4.45
2023-01-04T15:05:51.016Z,4.85
2023-01-04T15:08:17.652Z,5.20
2023-01-04T15:10:46.372Z,6.10
2023-01-04T15:13:13.137Z,4.95
2023-01-04T15:15:39.729Z,6.07
2023-01-04T15:18:06.988Z,5.90
2023-01-04T15:20:33.939Z,7.13
2023-01-04T15:23:00.549Z,6.22
2023-01-04T15:25:29.714Z,6.47
2023-01-04T15:27:56.410Z,6.60
2023-01-04T15:30:23.055Z,6.20
2023-01-04T15:32:49.925Z,6.45
2023-01-04T15:35:17.132Z,6.55
2023-01-04T15:37:44.300Z,8.02
2023-01-04T15:40:11.647Z,7.70
2023-01-04T15:42:56.991Z,7.63
2023-01-04T15:47:51.043Z,7.68
2023-01-04T15:50:18.358Z,8.05
2023-01-04T15:52:44.892Z,8.30
2023-01-04T15:55:12.614Z,10.43
2023-01-04T15:57:43.711Z,6.70
2023-01-04T16:00:11.290Z,10.65
2023-01-04T16:02:40.719Z,10.77
2023-01-04T16:05:08.157Z,6.72
2023-01-04T16:07:36.663Z,8.18
2023-01-04T16:10:04.130Z,9.50
2023-01-04T16:12:42.592Z,8.23
2023-01-04T16:15:10.146Z,9.48
2023-01-04T16:17:36.759Z,7.78
2023-01-04T16:20:03.753Z,9.52
2023-01-04T16:22:30.322Z,9.15
2023-01-04T16:25:12.780Z,7.30
2023-01-04T16:27:40.098Z,8.68
2023-01-04T16:30:08.282Z,6.57
2023-01-04T16:32:35.667Z,7.63
2023-01-04T16:35:02.670Z,7.60
2023-01-04T16:37:30.631Z,9.05
2023-01-04T16:40:06.263Z,8.32
2023-01-04T16:42:34.341Z,8.32
2023-01-04T16:45:01.014Z,8.60
2023-01-04T16:47:27.852Z,8.43
2023-01-04T16:49:54.677Z,7.95
2023-01-04T16:52:21.844Z,9.10
2023-01-04T16:54:49.077Z,10.10
2023-01-04T16:57:15.708Z,7.13
2023-01-04T16:59:42.424Z,7.43
2023-01-04T17:02:10.529Z,6.63
2023-01-04T17:04:37.287Z,9.60
2023-01-04T17:07:04.278Z,8.00
2023-01-04T17:09:31.045Z,9.32
2023-01-04T17:14:44.507Z,7.65
2023-01-04T17:17:11.122Z,9.40
2023-01-04T17:19:37.845Z,9.38
2023-01-04T17:22:04.481Z,9.57
2023-01-04T17:24:31.148Z,9.25
2023-01-04T17:26:57.791Z,9.95
2023-01-04T17:29:24.473Z,10.90
2023-01-04T17:31:51.381Z,10.75
2023-01-04T17:34:22.443Z,11.02
2023-01-04T17:36:50.625Z,9.88
2023-01-04T17:39:17.371Z,8.77
2023-01-04T17:41:44.159Z,8.93
2023-01-04T17:44:10.891Z,8.82
2023-01-04T17:46:37.685Z,11.50
2023-01-04T17:49:23.944Z,9.35
2023-01-04T17:51:53.141Z,8.02
2023-01-04T17:54:20.931Z,10.35
2023-01-04T17:56:47.618Z,10.07
2023-01-04T17:59:14.320Z,9.00
2023-01-04T18:01:40.935Z,10.73
2023-01-04T18:04:09.206Z,9.68
2023-01-04T18:06:36.869Z,8.52
2023-01-04T18:09:05.451Z,9.55
2023-01-04T18:11:32.186Z,12.45
2023-01-04T18:13:58.876Z,8.95
2023-01-04T18:16:27.292Z,9.95
2023-01-04T18:18:55.039Z,11.07
2023-01-04T18:21:31.019Z,10.52
2023-01-04T18:24:34.248Z,8.55
2023-01-04T18:29:35.265Z,9.85
2023-01-04T18:32:02.288Z,10.30
2023-01-04T18:34:29.316Z,9.32
2023-01-04T18:36:56.103Z,9.23
2023-01-04T18:39:22.780Z,11.30
2023-01-04T18:41:49.365Z,10.32
2023-01-04T18:44:32.685Z,6.88
2023-01-04T18:47:01.001Z,8.45
2023-01-04T18:49:27.581Z,7.55
2023-01-04T18:51:54.202Z,7.70
2023-01-04T18:54:21.846Z,8.48
2023-01-04T18:56:48.697Z,7.18
2023-01-04T18:59:17.513Z,7.43
2023-01-04T19:01:45.607Z,6.57
2023-01-04T19:04:13.053Z,8.20
2023-01-04T19:06:40.532Z,8.68
2023-01-04T19:09:07.757Z,7.40
2023-01-04T19:11:34.973Z,8.98
2023-01-04T19:14:01.796Z,8.00
2023-01-04T19:16:33.934Z,7.97
2023-01-04T19:19:00.945Z,7.20
2023-01-04T19:21:28.112Z,8.82
2023-01-04T19:23:55.434Z,8.60
2023-01-04T19:26:22.354Z,7.65
2023-01-04T19:28:49.705Z,9.18
2023-01-04T19:31:16.839Z,8.43
2023-01-04T19:33:43.516Z,7.38
2023-01-04T19:36:10.946Z,7.38
2023-01-04T19:38:37.896Z,8.43
2023-01-04T19:41:05.205Z,7.82
2023-01-04T19:43:32.462Z,7.55
2023-01-04T19:45:59.449Z,9.55
2023-01-04T19:48:26.422Z,6.22
2023-01-04T19:51:05.123Z,8.18
2023-01-04T19:53:34.507Z,7.63
2023-01-04T19:56:01.857Z,7.63
2023-01-04T19:58:28.654Z,8.18
2023-01-04T20:00:56.728Z,6.78
2023-01-04T20:03:25.311Z,6.53
2023-01-04T20:05:52.420Z,6.97
2023-01-04T20:08:19.084Z,7.22
2023-01-04T20:10:45.866Z,8.15
2023-01-04T20:13:12.616Z,8.95
2023-01-04T20:15:42.143Z,8.25
2023-01-04T20:18:14.077Z,6.85
2023-01-04T20:20:42.709Z,7.90
2023-01-04T20:23:09.883Z,8.07
2023-01-04T20:25:40.896Z,8.35
2023-01-04T20:28:07.569Z,7.35
2023-01-04T20:30:34.220Z,7.97
2023-01-04T20:33:00.731Z,8.80
2023-01-04T20:35:27.474Z,7.90
2023-01-04T20:37:56.641Z,6.90
2023-01-04T20:40:29.187Z,9.07
2023-01-04T20:43:14.480Z,9.13
2023-01-04T20:48:08.127Z,7.78
2023-01-04T20:50:35.018Z,6.57
2023-01-04T20:53:01.754Z,7.85
2023-01-04T20:55:28.391Z,6.72
2023-01-04T20:57:55.178Z,8.32
2023-01-04T21:00:22.043Z,8.32
2023-01-04T21:02:48.846Z,8.57
2023-01-04T21:05:16.318Z,8.68
2023-01-04T21:07:42.933Z,6.80
2023-01-04T21:10:09.943Z,8.25
2023-01-04T21:12:38.561Z,6.85
2023-01-04T21:15:05.421Z,8.07
2023-01-04T21:17:32.002Z,8.35
2023-01-04T21:19:58.741Z,8.32
2023-01-04T21:22:25.969Z,7.75
2023-01-04T21:24:55.614Z,8.23
2023-01-04T21:27:22.280Z,8.48
2023-01-04T21:29:48.917Z,7.07
2023-01-04T21:32:15.438Z,7.32
2023-01-04T21:34:42.383Z,8.27
2023-01-04T21:37:08.965Z,9.18
2023-01-04T21:39:35.910Z,7.18
2023-01-04T21:42:02.455Z,8.25
2023-01-04T21:44:29.084Z,7.60
2023-01-04T21:46:58.660Z,8.07
2023-01-04T21:49:25.759Z,5.85
2023-01-04T21:51:52.811Z,7.45
2023-01-04T21:54:19.371Z,7.50
2023-01-04T21:56:46.608Z,6.55
2023-01-04T21:59:13.385Z,8.40
2023-01-04T22:01:40.225Z,7.53
2023-01-04T22:04:07.727Z,7.20
2023-01-04T22:06:37.485Z,8.40
2023-01-04T22:09:05.169Z,6.30
2023-01-04T22:11:31.724Z,6.90
2023-01-04T22:13:58.357Z,8.02
2023-01-04T22:16:25.750Z,7.25
2023-01-04T22:18:52.904Z,6.38
2023-01-04T22:21:20.746Z,7.53
2023-01-04T22:23:47.502Z,8.35
2023-01-04T22:26:14.218Z,9.43
2023-01-04T22:28:41.033Z,7.78
2023-01-04T22:31:08.805Z,6.93
2023-01-04T22:33:36.253Z,7.32
2023-01-04T22:36:04.025Z,7.30
2023-01-04T22:38:30.759Z,8.75
2023-01-04T22:40:57.509Z,8.50
2023-01-04T22:43:24.277Z,7.28
2023-01-04T22:45:50.775Z,8.13
2023-01-04T22:48:17.590Z,8.52
2023-01-04T22:50:44.099Z,8.18
2023-01-04T22:53:10.687Z,8.05
2023-01-04T22:56:09.400Z,8.27
2023-01-04T22:58:26.544Z,6.75
2023-01-04T23:00:53.250Z,8.20
2023-01-04T23:03:21.293Z,7.72
2023-01-04T23:05:48.007Z,8.23
2023-01-04T23:08:14.798Z,9.27
2023-01-04T23:10:41.316Z,9.85
2023-01-04T23:13:08.160Z,8.98
2023-01-04T23:15:36.515Z,7.60
2023-01-04T23:18:03.266Z,8.98
2023-01-04T23:20:29.830Z,8.30
2023-01-04T23:22:56.601Z,8.18
2023-01-04T23:25:23.248Z,9.10
2023-01-04T23:27:50.015Z,9.27
2023-01-04T23:30:19.403Z,8.27
2023-01-04T23:32:46.195Z,9.32
2023-01-04T23:35:13.441Z,8.70
2023-01-04T23:37:40.041Z,8.82
2023-01-04T23:40:06.781Z,8.15
2023-01-04T23:42:33.437Z,9.80
2023-01-04T23:45:00.136Z,9.52
2023-01-04T23:47:26.749Z,8.60
2023-01-04T23:49:53.321Z,8.98
2023-01-04T23:52:19.936Z,8.35
2023-01-04T23:54:46.427Z,7.40
2023-01-04T23:57:13.059Z,7.63
2023-01-04T23:59:39.782Z,8.52
